KAL249 PANC-KJFK
Flight info
| Callsign | KAL249 |
|---|---|
| Flight time | N/A |
| Altitude | 31000 |
| Route | JOH YAK DEEJA 58N130W 56N120W/N0479F330 WAINN 50N100W DLH TWIGS JHW Q476 WLKES |
| Aircraft | B77L/H-SDE1E2E3FGHIJ2J3J4J5M1RWXY/LB1D1 |
Departure
| Time | 2026-05-04 03:11 |
|---|---|
| Airport | Ted Stevens Anchorage International Airport (PANC) |
Arrival
| Time | N/A |
|---|---|
| Airport | John F. Kennedy International Airport (KJFK) |
| Time | Latitude | Longitude | Altitude | Speed | Heading |
|---|---|---|---|---|---|
| 2026-05-04 02:44 | 61.17522 | -149.98771 | 110 ft | 0 kts | 28° |
| 2026-05-04 02:53 | 61.17522 | -149.98772 | 110 ft | 0 kts | 28° |
| 2026-05-04 02:55 | 61.17521 | -149.98772 | 110 ft | 1 kts | 28° |
| 2026-05-04 02:56 | 61.17502 | -149.98793 | 108 ft | 3 kts | 28° |
| 2026-05-04 02:56 | 61.17481 | -149.98817 | 108 ft | 3 kts | 28° |
| 2026-05-04 02:56 | 61.17460 | -149.98840 | 107 ft | 3 kts | 28° |
| 2026-05-04 02:56 | 61.17439 | -149.98863 | 107 ft | 3 kts | 28° |
| 2026-05-04 02:57 | 61.17423 | -149.98881 | 108 ft | 3 kts | 47° |
| 2026-05-04 02:57 | 61.17417 | -149.98892 | 108 ft | 3 kts | 102° |
| 2026-05-04 02:57 | 61.17423 | -149.98914 | 109 ft | 3 kts | 147° |
| 2026-05-04 02:57 | 61.17442 | -149.98933 | 106 ft | 3 kts | 165° |
| 2026-05-04 02:58 | 61.17465 | -149.98943 | 108 ft | 3 kts | 170° |
| 2026-05-04 02:58 | 61.17486 | -149.98953 | 107 ft | 1 kts | 160° |
| 2026-05-04 02:58 | 61.17487 | -149.98953 | 107 ft | 0 kts | 160° |
| 2026-05-04 03:02 | 61.17472 | -149.98942 | 109 ft | 5 kts | 160° |
| 2026-05-04 03:03 | 61.17439 | -149.98923 | 109 ft | 5 kts | 165° |
| 2026-05-04 03:03 | 61.17405 | -149.98905 | 116 ft | 5 kts | 165° |
| 2026-05-04 03:03 | 61.17373 | -149.98881 | 110 ft | 5 kts | 160° |
| 2026-05-04 03:03 | 61.17340 | -149.98856 | 111 ft | 5 kts | 159° |
| 2026-05-04 03:04 | 61.17308 | -149.98831 | 111 ft | 5 kts | 159° |
| 2026-05-04 03:04 | 61.17275 | -149.98807 | 114 ft | 5 kts | 160° |
| 2026-05-04 03:04 | 61.17243 | -149.98782 | 112 ft | 5 kts | 160° |
| 2026-05-04 03:04 | 61.17210 | -149.98758 | 115 ft | 5 kts | 161° |
| 2026-05-04 03:05 | 61.17178 | -149.98734 | 113 ft | 5 kts | 160° |
| 2026-05-04 03:05 | 61.17144 | -149.98727 | 115 ft | 5 kts | 189° |
| 2026-05-04 03:05 | 61.17124 | -149.98781 | 115 ft | 5 kts | 253° |
| 2026-05-04 03:05 | 61.17120 | -149.98855 | 116 ft | 7 kts | 269° |
| 2026-05-04 03:06 | 61.17122 | -149.98983 | 117 ft | 9 kts | 274° |
| 2026-05-04 03:06 | 61.17126 | -149.99115 | 121 ft | 9 kts | 270° |
| 2026-05-04 03:06 | 61.17125 | -149.99247 | 123 ft | 9 kts | 269° |
| 2026-05-04 03:06 | 61.17125 | -149.99380 | 126 ft | 9 kts | 270° |
| 2026-05-04 03:07 | 61.17125 | -149.99513 | 128 ft | 9 kts | 270° |
| 2026-05-04 03:07 | 61.17124 | -149.99643 | 131 ft | 9 kts | 270° |
| 2026-05-04 03:07 | 61.17124 | -149.99776 | 133 ft | 9 kts | 270° |
| 2026-05-04 03:07 | 61.17124 | -149.99908 | 136 ft | 9 kts | 270° |
| 2026-05-04 03:08 | 61.17124 | -150.00041 | 138 ft | 9 kts | 270° |
| 2026-05-04 03:08 | 61.17124 | -150.00173 | 140 ft | 9 kts | 270° |
| 2026-05-04 03:08 | 61.17124 | -150.00306 | 141 ft | 9 kts | 270° |
| 2026-05-04 03:08 | 61.17124 | -150.00438 | 141 ft | 9 kts | 270° |
| 2026-05-04 03:09 | 61.17124 | -150.00571 | 141 ft | 9 kts | 270° |
| 2026-05-04 03:09 | 61.17124 | -150.00703 | 141 ft | 9 kts | 270° |
| 2026-05-04 03:09 | 61.17095 | -150.00808 | 140 ft | 9 kts | 201° |
| 2026-05-04 03:09 | 61.17031 | -150.00812 | 139 ft | 9 kts | 179° |
| 2026-05-04 03:10 | 61.16980 | -150.00749 | 141 ft | 9 kts | 113° |
| 2026-05-04 03:10 | 61.16978 | -150.00615 | 141 ft | 11 kts | 90° |
| 2026-05-04 03:10 | 61.16977 | -150.00143 | 138 ft | 66 kts | 90° |
| 2026-05-04 03:10 | 61.16978 | -149.98710 | 120 ft | 132 kts | 90° |
| 2026-05-04 03:11 | 61.16980 | -149.96414 | 110 ft | 183 kts | 92° |
| 2026-05-04 03:11 | 61.16989 | -149.93704 | 559 ft | 191 kts | 89° |
| 2026-05-04 03:11 | 61.16891 | -149.91004 | 1237 ft | 185 kts | 112° |
| 2026-05-04 03:11 | 61.16367 | -149.88626 | 1902 ft | 185 kts | 113° |
| 2026-05-04 03:12 | 61.15831 | -149.86044 | 2127 ft | 205 kts | 111° |
| 2026-05-04 03:12 | 61.15258 | -149.83209 | 2402 ft | 224 kts | 111° |
| 2026-05-04 03:12 | 61.14651 | -149.80163 | 2940 ft | 232 kts | 111° |
| 2026-05-04 03:12 | 61.14029 | -149.77036 | 3578 ft | 237 kts | 111° |
| 2026-05-04 03:13 | 61.13404 | -149.73866 | 4315 ft | 238 kts | 112° |
| 2026-05-04 03:13 | 61.12776 | -149.70673 | 5035 ft | 241 kts | 112° |
| 2026-05-04 03:13 | 61.12142 | -149.67435 | 5651 ft | 245 kts | 113° |
| 2026-05-04 03:13 | 61.11501 | -149.64153 | 6257 ft | 248 kts | 115° |
| 2026-05-04 03:14 | 61.10857 | -149.60832 | 6770 ft | 253 kts | 115° |
| 2026-05-04 03:14 | 61.10186 | -149.57410 | 7282 ft | 260 kts | 115° |
| 2026-05-04 03:14 | 61.09506 | -149.53921 | 7914 ft | 265 kts | 115° |
| 2026-05-04 03:14 | 61.08800 | -149.50338 | 8403 ft | 273 kts | 116° |
| 2026-05-04 03:15 | 61.08091 | -149.46697 | 9069 ft | 274 kts | 116° |
| 2026-05-04 03:15 | 61.07368 | -149.43000 | 9623 ft | 280 kts | 117° |
| 2026-05-04 03:15 | 61.06639 | -149.39246 | 10211 ft | 283 kts | 117° |
| 2026-05-04 03:15 | 61.05881 | -149.35385 | 10477 ft | 299 kts | 117° |
| 2026-05-04 03:16 | 61.05067 | -149.31287 | 10619 ft | 318 kts | 116° |
| 2026-05-04 03:16 | 61.04206 | -149.26945 | 10813 ft | 337 kts | 117° |
| 2026-05-04 03:16 | 61.03293 | -149.22333 | 10963 ft | 356 kts | 116° |
| 2026-05-04 03:16 | 61.02345 | -149.17528 | 11358 ft | 368 kts | 117° |
| 2026-05-04 03:17 | 61.01365 | -149.12582 | 11906 ft | 376 kts | 117° |
| 2026-05-04 03:17 | 61.00373 | -149.07541 | 12505 ft | 382 kts | 117° |
| 2026-05-04 03:17 | 60.99361 | -149.02440 | 13134 ft | 388 kts | 117° |
| 2026-05-04 03:17 | 60.98330 | -148.97288 | 13773 ft | 391 kts | 117° |
| 2026-05-04 03:18 | 60.97291 | -148.92076 | 14389 ft | 395 kts | 117° |
| 2026-05-04 03:18 | 60.96243 | -148.86825 | 14931 ft | 401 kts | 118° |
| 2026-05-04 03:18 | 60.95169 | -148.81477 | 15522 ft | 406 kts | 118° |
| 2026-05-04 03:18 | 60.94086 | -148.76095 | 16177 ft | 409 kts | 118° |
| 2026-05-04 03:19 | 60.92988 | -148.70657 | 16693 ft | 416 kts | 118° |
| 2026-05-04 03:19 | 60.91873 | -148.65160 | 17407 ft | 416 kts | 118° |
| 2026-05-04 03:19 | 60.90754 | -148.59648 | 17982 ft | 421 kts | 118° |
| 2026-05-04 03:19 | 60.89617 | -148.54068 | 18500 ft | 426 kts | 118° |
| 2026-05-04 03:20 | 60.88468 | -148.48438 | 19085 ft | 427 kts | 118° |
| 2026-05-04 03:20 | 60.87313 | -148.42788 | 19542 ft | 432 kts | 119° |
| 2026-05-04 03:20 | 60.86139 | -148.37082 | 20028 ft | 437 kts | 119° |
| 2026-05-04 03:20 | 60.84949 | -148.31318 | 20558 ft | 441 kts | 120° |
| 2026-05-04 03:21 | 60.83747 | -148.25506 | 21061 ft | 444 kts | 120° |
| 2026-05-04 03:21 | 60.82538 | -148.19662 | 21562 ft | 447 kts | 120° |
| 2026-05-04 03:21 | 60.81314 | -148.13767 | 22030 ft | 451 kts | 120° |
| 2026-05-04 03:21 | 60.80077 | -148.07834 | 22537 ft | 455 kts | 120° |
| 2026-05-04 03:22 | 60.78829 | -148.01857 | 23022 ft | 459 kts | 120° |
| 2026-05-04 03:22 | 60.77564 | -147.95822 | 23468 ft | 463 kts | 120° |
| 2026-05-04 03:22 | 60.76289 | -147.89756 | 23904 ft | 467 kts | 120° |
| 2026-05-04 03:22 | 60.75000 | -147.83640 | 24285 ft | 470 kts | 121° |
| 2026-05-04 03:23 | 60.73699 | -147.77484 | 24677 ft | 473 kts | 121° |
| 2026-05-04 03:23 | 60.72390 | -147.71309 | 25074 ft | 475 kts | 121° |
| 2026-05-04 03:23 | 60.71068 | -147.65093 | 25451 ft | 478 kts | 121° |
| 2026-05-04 03:23 | 60.69734 | -147.58840 | 25825 ft | 482 kts | 121° |
| 2026-05-04 03:24 | 60.68390 | -147.52556 | 26183 ft | 485 kts | 121° |
| 2026-05-04 03:24 | 60.67033 | -147.46234 | 26536 ft | 488 kts | 121° |
| 2026-05-04 03:24 | 60.65665 | -147.39881 | 26916 ft | 491 kts | 121° |
| 2026-05-04 03:24 | 60.64285 | -147.33473 | 27270 ft | 495 kts | 121° |
| 2026-05-04 03:25 | 60.62900 | -147.27038 | 27624 ft | 498 kts | 121° |
| 2026-05-04 03:25 | 60.61502 | -147.20573 | 27964 ft | 501 kts | 121° |
| 2026-05-04 03:25 | 60.60087 | -147.14067 | 28307 ft | 503 kts | 122° |
| 2026-05-04 03:25 | 60.58661 | -147.07545 | 28633 ft | 506 kts | 122° |
| 2026-05-04 03:26 | 60.57225 | -147.01006 | 28965 ft | 509 kts | 122° |
| 2026-05-04 03:26 | 60.55771 | -146.94409 | 29254 ft | 511 kts | 122° |
| 2026-05-04 03:26 | 60.54316 | -146.87822 | 29597 ft | 513 kts | 122° |
| 2026-05-04 03:26 | 60.52872 | -146.81297 | 30023 ft | 512 kts | 122° |
| 2026-05-04 03:27 | 60.51393 | -146.74628 | 30464 ft | 511 kts | 122° |
| 2026-05-04 03:27 | 60.49951 | -146.68157 | 30839 ft | 510 kts | 123° |
| 2026-05-04 03:27 | 60.48551 | -146.61523 | 31147 ft | 515 kts | 119° |
| 2026-05-04 03:27 | 60.47403 | -146.54578 | 31184 ft | 526 kts | 112° |
| 2026-05-04 03:28 | 60.46563 | -146.47301 | 31227 ft | 533 kts | 110° |
| 2026-05-04 03:28 | 60.44980 | -146.32500 | 31230 ft | 541 kts | 109° |
| 2026-05-04 03:29 | 60.43351 | -146.17556 | 31238 ft | 546 kts | 110° |
| 2026-05-04 03:29 | 60.41653 | -146.02514 | 31229 ft | 550 kts | 110° |
| 2026-05-04 03:30 | 60.39915 | -145.87423 | 31234 ft | 551 kts | 110° |
| 2026-05-04 03:30 | 60.38155 | -145.72333 | 31230 ft | 551 kts | 110° |
| 2026-05-04 03:31 | 60.36382 | -145.57268 | 31234 ft | 551 kts | 110° |
| 2026-05-04 03:31 | 60.34896 | -145.44758 | 31231 ft | 550 kts | 110° |
| 2026-05-04 03:32 | 60.33096 | -145.29753 | 31235 ft | 550 kts | 110° |
| 2026-05-04 03:32 | 60.31281 | -145.14784 | 31233 ft | 549 kts | 110° |
| 2026-05-04 03:33 | 60.29449 | -144.99832 | 31237 ft | 549 kts | 111° |
| 2026-05-04 03:33 | 60.27601 | -144.84903 | 31240 ft | 549 kts | 111° |
| 2026-05-04 03:34 | 60.25739 | -144.70005 | 31248 ft | 549 kts | 111° |
| 2026-05-04 03:34 | 60.23856 | -144.55099 | 31254 ft | 550 kts | 111° |
| 2026-05-04 03:35 | 60.21955 | -144.40194 | 31253 ft | 550 kts | 111° |
| 2026-05-04 03:35 | 60.20035 | -144.25289 | 31246 ft | 551 kts | 111° |
| 2026-05-04 03:36 | 60.18095 | -144.10384 | 31246 ft | 552 kts | 111° |
| 2026-05-04 03:36 | 60.16139 | -143.95490 | 31251 ft | 552 kts | 111° |
| 2026-05-04 03:37 | 60.14162 | -143.80594 | 31255 ft | 553 kts | 111° |
| 2026-05-04 03:37 | 60.12169 | -143.65711 | 31264 ft | 554 kts | 111° |
| 2026-05-04 03:38 | 60.10154 | -143.50805 | 31265 ft | 555 kts | 111° |
| 2026-05-04 03:38 | 60.08122 | -143.35922 | 31265 ft | 556 kts | 111° |
| 2026-05-04 03:39 | 60.06078 | -143.21091 | 31268 ft | 557 kts | 112° |
| 2026-05-04 03:39 | 60.04002 | -143.06164 | 31269 ft | 557 kts | 112° |
| 2026-05-04 03:40 | 60.01904 | -142.91222 | 31268 ft | 558 kts | 112° |
| 2026-05-04 03:40 | 59.99790 | -142.76304 | 31282 ft | 559 kts | 112° |
| 2026-05-04 03:41 | 59.97653 | -142.61359 | 31281 ft | 559 kts | 112° |
| 2026-05-04 03:41 | 59.95498 | -142.46429 | 31272 ft | 560 kts | 112° |
| 2026-05-04 03:42 | 59.93326 | -142.31520 | 31276 ft | 560 kts | 112° |
| 2026-05-04 03:42 | 59.91133 | -142.16597 | 31284 ft | 561 kts | 112° |
| 2026-05-04 03:43 | 59.88923 | -142.01696 | 31289 ft | 561 kts | 112° |
| 2026-05-04 03:43 | 59.86694 | -141.86791 | 31293 ft | 562 kts | 112° |
| 2026-05-04 03:44 | 59.84445 | -141.71892 | 31303 ft | 562 kts | 112° |
| 2026-05-04 03:44 | 59.82179 | -141.57019 | 31296 ft | 563 kts | 112° |
| 2026-05-04 03:45 | 59.79893 | -141.42141 | 31300 ft | 563 kts | 112° |
| 2026-05-04 03:45 | 59.77594 | -141.27308 | 31299 ft | 563 kts | 112° |
| 2026-05-04 03:46 | 59.75291 | -141.12571 | 31305 ft | 563 kts | 113° |
| 2026-05-04 03:46 | 59.72956 | -140.97757 | 31305 ft | 563 kts | 113° |
| 2026-05-04 03:47 | 59.70601 | -140.82944 | 31301 ft | 563 kts | 113° |
| 2026-05-04 03:47 | 59.68233 | -140.68172 | 31310 ft | 563 kts | 113° |
| 2026-05-04 03:48 | 59.65846 | -140.53414 | 31312 ft | 563 kts | 113° |
| 2026-05-04 03:48 | 59.63445 | -140.38685 | 31317 ft | 563 kts | 113° |
| 2026-05-04 03:49 | 59.61026 | -140.23972 | 31330 ft | 563 kts | 113° |
| 2026-05-04 03:49 | 59.58590 | -140.09275 | 31322 ft | 563 kts | 113° |
| 2026-05-04 03:50 | 59.56141 | -139.94618 | 31327 ft | 563 kts | 113° |
| 2026-05-04 03:50 | 59.53678 | -139.79986 | 31329 ft | 563 kts | 113° |
| 2026-05-04 03:51 | 59.51217 | -139.65347 | 31325 ft | 564 kts | 111° |
| 2026-05-04 03:51 | 59.49367 | -139.50299 | 31350 ft | 567 kts | 106° |
| 2026-05-04 03:52 | 59.47715 | -139.35113 | 31326 ft | 568 kts | 106° |
| 2026-05-04 03:52 | 59.46027 | -139.19951 | 31342 ft | 568 kts | 106° |
| 2026-05-04 03:53 | 59.44287 | -139.04823 | 31340 ft | 567 kts | 107° |
| 2026-05-04 03:53 | 59.42521 | -138.89746 | 31338 ft | 567 kts | 107° |
| 2026-05-04 03:54 | 59.40735 | -138.74654 | 31345 ft | 567 kts | 107° |
| 2026-05-04 03:54 | 59.38937 | -138.59594 | 31341 ft | 567 kts | 107° |
| 2026-05-04 03:55 | 59.37124 | -138.44550 | 31349 ft | 567 kts | 107° |
| 2026-05-04 03:55 | 59.35308 | -138.29646 | 31346 ft | 567 kts | 107° |
| 2026-05-04 03:56 | 59.33460 | -138.14634 | 31345 ft | 567 kts | 107° |
| 2026-05-04 03:56 | 59.31594 | -137.99639 | 31337 ft | 567 kts | 107° |
| 2026-05-04 03:57 | 59.29709 | -137.84655 | 31344 ft | 567 kts | 107° |
| 2026-05-04 03:57 | 59.27811 | -137.69716 | 31331 ft | 566 kts | 107° |
| 2026-05-04 03:58 | 59.24937 | -137.47373 | 31313 ft | 566 kts | 107° |
| 2026-05-04 03:58 | 59.22998 | -137.32479 | 31325 ft | 565 kts | 107° |
| 2026-05-04 03:59 | 59.21043 | -137.17616 | 31356 ft | 566 kts | 107° |
| 2026-05-04 03:59 | 59.19069 | -137.02757 | 31363 ft | 566 kts | 107° |
| 2026-05-04 04:00 | 59.17077 | -136.87903 | 31350 ft | 566 kts | 107° |
| 2026-05-04 04:00 | 59.15071 | -136.73081 | 31368 ft | 566 kts | 107° |
| 2026-05-04 04:01 | 59.13044 | -136.58261 | 31364 ft | 566 kts | 107° |
| 2026-05-04 04:01 | 59.11003 | -136.43470 | 31325 ft | 566 kts | 107° |
| 2026-05-04 04:02 | 59.08951 | -136.28739 | 31364 ft | 565 kts | 107° |
| 2026-05-04 04:02 | 59.06876 | -136.13981 | 31357 ft | 566 kts | 107° |
| 2026-05-04 04:03 | 59.04779 | -135.99200 | 31358 ft | 568 kts | 107° |
| 2026-05-04 04:03 | 59.02662 | -135.84425 | 31352 ft | 569 kts | 108° |
| 2026-05-04 04:04 | 59.00519 | -135.69608 | 31327 ft | 571 kts | 108° |
| 2026-05-04 04:04 | 58.98361 | -135.54802 | 31354 ft | 571 kts | 108° |
| 2026-05-04 04:05 | 58.96182 | -135.39991 | 31277 ft | 571 kts | 108° |
| 2026-05-04 04:05 | 58.93991 | -135.25237 | 31356 ft | 571 kts | 108° |
| 2026-05-04 04:06 | 58.91778 | -135.10455 | 31371 ft | 573 kts | 108° |
| 2026-05-04 04:06 | 58.89542 | -134.95683 | 31377 ft | 572 kts | 109° |
| 2026-05-04 04:07 | 58.87224 | -134.80960 | 31308 ft | 573 kts | 109° |
| 2026-05-04 04:07 | 58.84861 | -134.66269 | 31373 ft | 573 kts | 109° |
| 2026-05-04 04:08 | 58.82489 | -134.51559 | 31351 ft | 575 kts | 109° |
| 2026-05-04 04:08 | 58.80107 | -134.36832 | 31359 ft | 576 kts | 109° |
| 2026-05-04 04:09 | 58.77716 | -134.22168 | 31356 ft | 577 kts | 109° |
| 2026-05-04 04:09 | 58.75274 | -134.07322 | 31360 ft | 578 kts | 109° |
| 2026-05-04 04:10 | 58.72844 | -133.92684 | 31367 ft | 578 kts | 109° |
| 2026-05-04 04:10 | 58.70383 | -133.77984 | 31371 ft | 578 kts | 109° |
| 2026-05-04 04:11 | 58.67903 | -133.63278 | 31383 ft | 577 kts | 109° |
| 2026-05-04 04:11 | 58.65411 | -133.48625 | 31391 ft | 577 kts | 109° |
| 2026-05-04 04:12 | 58.62884 | -133.33894 | 31403 ft | 577 kts | 110° |
| 2026-05-04 04:12 | 58.60361 | -133.19301 | 31422 ft | 575 kts | 110° |
| 2026-05-04 04:13 | 58.57819 | -133.04719 | 31377 ft | 576 kts | 110° |
| 2026-05-04 04:13 | 58.55282 | -132.90275 | 31408 ft | 577 kts | 109° |
| 2026-05-04 04:14 | 58.52707 | -132.75725 | 31398 ft | 577 kts | 109° |
| 2026-05-04 04:14 | 58.50111 | -132.61176 | 31350 ft | 578 kts | 110° |
| 2026-05-04 04:15 | 58.47501 | -132.46657 | 31368 ft | 579 kts | 110° |
| 2026-05-04 04:15 | 58.44866 | -132.32117 | 31355 ft | 579 kts | 110° |
| 2026-05-04 04:16 | 58.42213 | -132.17585 | 31335 ft | 579 kts | 110° |
| 2026-05-04 04:16 | 58.39544 | -132.03087 | 31320 ft | 579 kts | 110° |
| 2026-05-04 04:17 | 58.36860 | -131.88606 | 31593 ft | 580 kts | 110° |
| 2026-05-04 04:17 | 58.35513 | -131.81383 | 31917 ft | 578 kts | 110° |
| 2026-05-04 04:17 | 58.34622 | -131.76618 | 32123 ft | 577 kts | 110° |
| 2026-05-04 04:18 | 58.33273 | -131.69426 | 32419 ft | 576 kts | 110° |
| 2026-05-04 04:18 | 58.31466 | -131.59840 | 32728 ft | 576 kts | 110° |
| 2026-05-04 04:18 | 58.30108 | -131.52666 | 32924 ft | 576 kts | 110° |
| 2026-05-04 04:18 | 58.29209 | -131.47933 | 33061 ft | 577 kts | 110° |
| 2026-05-04 04:19 | 58.27843 | -131.40764 | 33212 ft | 577 kts | 110° |
| 2026-05-04 04:19 | 58.26473 | -131.33596 | 33250 ft | 578 kts | 110° |
| 2026-05-04 04:19 | 58.23719 | -131.19270 | 33271 ft | 578 kts | 110° |
| 2026-05-04 04:20 | 58.20948 | -131.04959 | 33250 ft | 578 kts | 110° |
| 2026-05-04 04:20 | 58.18165 | -130.90695 | 33253 ft | 577 kts | 110° |
| 2026-05-04 04:21 | 58.15368 | -130.76457 | 33256 ft | 576 kts | 111° |
| 2026-05-04 04:21 | 58.12558 | -130.62264 | 33240 ft | 576 kts | 110° |
| 2026-05-04 04:22 | 58.09734 | -130.48091 | 33248 ft | 576 kts | 111° |
| 2026-05-04 04:22 | 58.06890 | -130.33922 | 33246 ft | 576 kts | 111° |
| 2026-05-04 04:23 | 58.04029 | -130.19771 | 33225 ft | 576 kts | 111° |
| 2026-05-04 04:23 | 58.01160 | -130.05667 | 33236 ft | 576 kts | 111° |
| 2026-05-04 04:24 | 57.98586 | -129.91386 | 33236 ft | 575 kts | 105° |
| 2026-05-04 04:24 | 57.96409 | -129.76882 | 33208 ft | 575 kts | 104° |
| 2026-05-04 04:25 | 57.94234 | -129.62391 | 33206 ft | 576 kts | 104° |
| 2026-05-04 04:25 | 57.91995 | -129.47834 | 33201 ft | 582 kts | 104° |
| 2026-05-04 04:26 | 57.89700 | -129.33191 | 33204 ft | 585 kts | 104° |
| 2026-05-04 04:26 | 57.87376 | -129.18522 | 33196 ft | 586 kts | 104° |
| 2026-05-04 04:27 | 57.85037 | -129.03864 | 33194 ft | 585 kts | 104° |
| 2026-05-04 04:27 | 57.82689 | -128.89249 | 33182 ft | 584 kts | 104° |
| 2026-05-04 04:28 | 57.80328 | -128.74673 | 33166 ft | 583 kts | 104° |
| 2026-05-04 04:28 | 57.77973 | -128.60254 | 33177 ft | 582 kts | 104° |
| 2026-05-04 04:29 | 57.75589 | -128.45783 | 33157 ft | 581 kts | 104° |
| 2026-05-04 04:29 | 57.73207 | -128.31441 | 33181 ft | 580 kts | 104° |
| 2026-05-04 04:30 | 57.70800 | -128.17064 | 33178 ft | 580 kts | 104° |
| 2026-05-04 04:30 | 57.68386 | -128.02761 | 33177 ft | 579 kts | 104° |
| 2026-05-04 04:31 | 57.65946 | -127.88418 | 33157 ft | 579 kts | 104° |
| 2026-05-04 04:31 | 57.63490 | -127.74097 | 33160 ft | 579 kts | 104° |
| 2026-05-04 04:32 | 57.61017 | -127.59788 | 33184 ft | 580 kts | 104° |
| 2026-05-04 04:32 | 57.58524 | -127.45489 | 33156 ft | 580 kts | 105° |
| 2026-05-04 04:33 | 57.56015 | -127.31201 | 33157 ft | 580 kts | 104° |
| 2026-05-04 04:33 | 57.53495 | -127.16950 | 33165 ft | 580 kts | 105° |
| 2026-05-04 04:34 | 57.50951 | -127.02695 | 33161 ft | 580 kts | 105° |
| 2026-05-04 04:34 | 57.48396 | -126.88478 | 33154 ft | 580 kts | 104° |
| 2026-05-04 04:35 | 57.45823 | -126.74279 | 33150 ft | 580 kts | 105° |
| 2026-05-04 04:35 | 57.43240 | -126.60110 | 33156 ft | 581 kts | 105° |
| 2026-05-04 04:36 | 57.40651 | -126.46033 | 33116 ft | 580 kts | 105° |
| 2026-05-04 04:36 | 57.38016 | -126.31822 | 33136 ft | 579 kts | 105° |
| 2026-05-04 04:37 | 57.32781 | -126.03862 | 33129 ft | 577 kts | 105° |
| 2026-05-04 04:38 | 57.30128 | -125.89839 | 33137 ft | 579 kts | 105° |
| 2026-05-04 04:38 | 57.27450 | -125.75807 | 33120 ft | 578 kts | 105° |
| 2026-05-04 04:39 | 57.24768 | -125.61829 | 33132 ft | 579 kts | 105° |
| 2026-05-04 04:39 | 57.22055 | -125.47843 | 33136 ft | 579 kts | 105° |
| 2026-05-04 04:40 | 57.19324 | -125.33835 | 33153 ft | 581 kts | 105° |
| 2026-05-04 04:40 | 57.16576 | -125.19829 | 33156 ft | 582 kts | 105° |
| 2026-05-04 04:41 | 57.13810 | -125.05836 | 33170 ft | 580 kts | 105° |
| 2026-05-04 04:41 | 57.11036 | -124.91923 | 33164 ft | 579 kts | 105° |
| 2026-05-04 04:42 | 57.08244 | -124.78012 | 33134 ft | 578 kts | 105° |
| 2026-05-04 04:42 | 57.05449 | -124.64163 | 33128 ft | 578 kts | 105° |
| 2026-05-04 04:43 | 57.02637 | -124.50333 | 33154 ft | 579 kts | 105° |
| 2026-05-04 04:43 | 56.99798 | -124.36477 | 33135 ft | 580 kts | 106° |
| 2026-05-04 04:44 | 56.96946 | -124.22649 | 33145 ft | 580 kts | 105° |
| 2026-05-04 04:44 | 56.94073 | -124.08815 | 33149 ft | 582 kts | 105° |
| 2026-05-04 04:45 | 56.91181 | -123.94967 | 33158 ft | 583 kts | 106° |
| 2026-05-04 04:47 | 56.80940 | -123.46744 | 33155 ft | 579 kts | 106° |
| 2026-05-04 04:47 | 56.77997 | -123.33093 | 33162 ft | 578 kts | 106° |
| 2026-05-04 04:48 | 56.75048 | -123.19490 | 33158 ft | 577 kts | 106° |
| 2026-05-04 04:49 | 56.67608 | -122.85594 | 33186 ft | 577 kts | 106° |
| 2026-05-04 04:49 | 56.64601 | -122.72044 | 33150 ft | 578 kts | 106° |
| 2026-05-04 04:50 | 56.61583 | -122.58522 | 33154 ft | 578 kts | 106° |
| 2026-05-04 04:50 | 56.58541 | -122.44993 | 33175 ft | 579 kts | 106° |
| 2026-05-04 04:51 | 56.55486 | -122.31497 | 33179 ft | 579 kts | 106° |
| 2026-05-04 04:51 | 56.52413 | -122.18004 | 33165 ft | 579 kts | 106° |
| 2026-05-04 04:52 | 56.49325 | -122.04534 | 33166 ft | 579 kts | 107° |
| 2026-05-04 04:52 | 56.46231 | -121.91119 | 33174 ft | 579 kts | 107° |
| 2026-05-04 04:53 | 56.43115 | -121.77696 | 33171 ft | 579 kts | 107° |
| 2026-05-04 04:53 | 56.39982 | -121.64281 | 33177 ft | 579 kts | 107° |
| 2026-05-04 04:54 | 56.36843 | -121.50923 | 33184 ft | 579 kts | 107° |
| 2026-05-04 04:54 | 56.33682 | -121.37561 | 33179 ft | 579 kts | 107° |
| 2026-05-04 04:55 | 56.30521 | -121.24277 | 33167 ft | 579 kts | 107° |
| 2026-05-04 04:55 | 56.27331 | -121.10953 | 33139 ft | 579 kts | 107° |
| 2026-05-04 04:56 | 56.24152 | -120.97756 | 33132 ft | 579 kts | 107° |
| 2026-05-04 04:56 | 56.23298 | -120.94226 | 33129 ft | 579 kts | 107° |
| 2026-05-04 04:57 | 56.20080 | -120.80970 | 33133 ft | 579 kts | 107° |
| 2026-05-04 04:57 | 56.16849 | -120.67742 | 33136 ft | 579 kts | 107° |
| 2026-05-04 04:58 | 56.13628 | -120.54628 | 33146 ft | 579 kts | 107° |
| 2026-05-04 04:58 | 56.10374 | -120.41460 | 33151 ft | 579 kts | 107° |
| 2026-05-04 04:59 | 56.07094 | -120.28274 | 33166 ft | 580 kts | 107° |
| 2026-05-04 04:59 | 56.03800 | -120.15107 | 33147 ft | 580 kts | 107° |
| 2026-05-04 05:00 | 56.00494 | -120.01954 | 33148 ft | 581 kts | 107° |
| 2026-05-04 05:01 | 55.95358 | -119.82346 | 33153 ft | 583 kts | 109° |
| 2026-05-04 05:01 | 55.91848 | -119.69395 | 33162 ft | 583 kts | 109° |
| 2026-05-04 05:02 | 55.88307 | -119.56333 | 33171 ft | 583 kts | 109° |
| 2026-05-04 05:02 | 55.84791 | -119.43362 | 33171 ft | 583 kts | 109° |
| 2026-05-04 05:03 | 55.81257 | -119.30372 | 33173 ft | 583 kts | 109° |
| 2026-05-04 05:04 | 55.74748 | -119.06657 | 33170 ft | 584 kts | 109° |
| 2026-05-04 05:04 | 55.70573 | -118.91583 | 33160 ft | 584 kts | 109° |
| 2026-05-04 05:06 | 55.56754 | -118.42380 | 33162 ft | 583 kts | 109° |
| 2026-05-04 05:07 | 55.53115 | -118.29597 | 33166 ft | 582 kts | 109° |
| 2026-05-04 05:07 | 55.49474 | -118.16877 | 33161 ft | 581 kts | 109° |
| 2026-05-04 05:09 | 55.33059 | -117.60366 | 33164 ft | 577 kts | 110° |
| 2026-05-04 05:10 | 55.29378 | -117.47879 | 33157 ft | 576 kts | 110° |
| 2026-05-04 05:10 | 55.25683 | -117.35413 | 33158 ft | 576 kts | 110° |
| 2026-05-04 05:11 | 55.21977 | -117.22971 | 33157 ft | 575 kts | 111° |
| 2026-05-04 05:11 | 55.18270 | -117.10592 | 33159 ft | 575 kts | 111° |
| 2026-05-04 05:12 | 55.14547 | -116.98226 | 33156 ft | 575 kts | 111° |
| 2026-05-04 05:12 | 55.10812 | -116.85884 | 33164 ft | 574 kts | 111° |
| 2026-05-04 05:13 | 55.07070 | -116.73584 | 33148 ft | 574 kts | 111° |
| 2026-05-04 05:13 | 55.03318 | -116.61313 | 33154 ft | 574 kts | 111° |
| 2026-05-04 05:14 | 54.99556 | -116.49075 | 33170 ft | 573 kts | 111° |
| 2026-05-04 05:14 | 54.95789 | -116.36881 | 33161 ft | 573 kts | 111° |
| 2026-05-04 05:15 | 54.92002 | -116.24684 | 33163 ft | 573 kts | 111° |
| 2026-05-04 05:15 | 54.88196 | -116.12491 | 33165 ft | 573 kts | 111° |
| 2026-05-04 05:16 | 54.84382 | -116.00333 | 33157 ft | 573 kts | 112° |
| 2026-05-04 05:16 | 54.80561 | -115.88217 | 33162 ft | 573 kts | 112° |
| 2026-05-04 05:17 | 54.76731 | -115.76131 | 33150 ft | 573 kts | 112° |
| 2026-05-04 05:17 | 54.72890 | -115.64071 | 33145 ft | 573 kts | 112° |
| 2026-05-04 05:18 | 54.69032 | -115.52018 | 33148 ft | 572 kts | 112° |
| 2026-05-04 05:18 | 54.65166 | -115.40001 | 33148 ft | 572 kts | 112° |
| 2026-05-04 05:19 | 54.61332 | -115.28141 | 33139 ft | 573 kts | 112° |
| 2026-05-04 05:19 | 54.57396 | -115.16024 | 33146 ft | 573 kts | 112° |
| 2026-05-04 05:20 | 54.53484 | -115.04042 | 33135 ft | 575 kts | 112° |
| 2026-05-04 05:20 | 54.49552 | -114.92058 | 33132 ft | 576 kts | 113° |
| 2026-05-04 05:21 | 54.45621 | -114.80136 | 33130 ft | 578 kts | 113° |
| 2026-05-04 05:21 | 54.41690 | -114.68275 | 33127 ft | 579 kts | 113° |
| 2026-05-04 05:22 | 54.37661 | -114.56174 | 33123 ft | 581 kts | 113° |
| 2026-05-04 05:22 | 54.33708 | -114.44360 | 33101 ft | 582 kts | 113° |
| 2026-05-04 05:23 | 54.29601 | -114.32152 | 33110 ft | 583 kts | 114° |
| 2026-05-04 05:23 | 54.25544 | -114.20149 | 33112 ft | 583 kts | 114° |
| 2026-05-04 05:24 | 54.21465 | -114.08140 | 33104 ft | 584 kts | 114° |
| 2026-05-04 05:24 | 54.17383 | -113.96180 | 33100 ft | 584 kts | 114° |
| 2026-05-04 05:25 | 54.13283 | -113.84223 | 33088 ft | 584 kts | 114° |
| 2026-05-04 05:25 | 54.09181 | -113.72322 | 33079 ft | 584 kts | 114° |
| 2026-05-04 05:26 | 54.05058 | -113.60417 | 33084 ft | 584 kts | 114° |
| 2026-05-04 05:26 | 54.00926 | -113.48544 | 33081 ft | 584 kts | 115° |
| 2026-05-04 05:28 | 53.84297 | -113.01322 | 33061 ft | 584 kts | 115° |
| 2026-05-04 05:29 | 53.80103 | -112.89555 | 33056 ft | 584 kts | 115° |
| 2026-05-04 05:29 | 53.75892 | -112.77793 | 33055 ft | 585 kts | 115° |
| 2026-05-04 05:31 | 53.58950 | -112.31031 | 33036 ft | 587 kts | 116° |
| 2026-05-04 05:32 | 53.54663 | -112.19339 | 33030 ft | 588 kts | 116° |
| 2026-05-04 05:33 | 53.48212 | -112.01847 | 33021 ft | 587 kts | 116° |
| 2026-05-04 05:33 | 53.43899 | -111.90217 | 33020 ft | 587 kts | 117° |
| 2026-05-04 05:34 | 53.39602 | -111.78684 | 33017 ft | 587 kts | 117° |
| 2026-05-04 05:34 | 53.35269 | -111.67111 | 33011 ft | 587 kts | 117° |
| 2026-05-04 05:35 | 53.30897 | -111.55485 | 33012 ft | 586 kts | 117° |
| 2026-05-04 05:35 | 53.26587 | -111.44076 | 33011 ft | 586 kts | 117° |
| 2026-05-04 05:36 | 53.22216 | -111.32558 | 33012 ft | 586 kts | 117° |
| 2026-05-04 05:36 | 53.17850 | -111.21104 | 33007 ft | 585 kts | 118° |
| 2026-05-04 05:37 | 53.15999 | -111.16265 | 33010 ft | 585 kts | 118° |
| 2026-05-04 05:37 | 53.13527 | -111.09820 | 32999 ft | 585 kts | 118° |